Time;durP1;ratioP1;P1;durP2;ratioP2;P2;SDS_P1;SDS_P2;PMS_P1;PMS_P2;Temp;Humidity;BMP_temperature;BMP_pressure;BME280_temperature;BME280_humidity;BME280_pressure;Samples;Min_cycle;Max_cycle;Signal;HPM_P1;HPM_P2
2022/10/24 00:00:57;;;;;;;;;0.67;0.00;;;;;19.20;56.05;100129.06;5121660;27;46651;-75
2022/10/24 00:03:23;;;;;;;;;0.00;0.00;;;;;19.09;56.16;100110.31;5121874;27;44913;-76
2022/10/24 00:05:48;;;;;;;;;1.00;0.67;;;;;19.00;56.36;100094.22;5115099;27;45896;-75
2022/10/24 00:08:15;;;;;;;;;0.33;0.33;;;;;18.94;56.47;100089.84;5112556;27;45089;-75
2022/10/24 00:10:42;;;;;;;;;1.67;0.00;;;;;19.11;56.49;100126.53;5116647;27;45244;-75
2022/10/24 00:13:08;;;;;;;;;6.00;1.00;;;;;19.11;56.58;100129.25;5098008;27;45142;-75
2022/10/24 00:15:33;;;;;;;;;0.67;0.67;;;;;19.13;56.60;100120.16;5114910;27;45655;-75
2022/10/24 00:17:58;;;;;;;;;1.67;1.00;;;;;18.83;56.66;100061.16;5114764;27;58150;-75
2022/10/24 00:20:24;;;;;;;;;2.00;0.67;;;;;19.00;56.85;100086.13;5096406;27;47160;-76
2022/10/24 00:22:49;;;;;;;;;1.33;1.00;;;;;19.16;56.75;100130.06;5113634;27;45012;-75
2022/10/24 00:25:14;;;;;;;;;0.00;0.00;;;;;19.14;56.70;100118.38;5114653;27;63550;-76
2022/10/24 00:27:40;;;;;;;;;0.00;0.00;;;;;19.14;56.66;100121.94;5123935;27;45220;-76
2022/10/24 00:30:06;;;;;;;;;0.00;0.00;;;;;19.13;56.67;100119.28;5121280;27;45433;-75
2022/10/24 00:32:31;;;;;;;;;0.67;0.00;;;;;19.11;56.63;100121.13;5117465;27;44942;-76
2022/10/24 00:34:56;;;;;;;;;0.00;0.00;;;;;19.09;56.71;100120.22;5114722;27;57180;-76
2022/10/24 00:37:22;;;;;;;;;2.00;0.33;;;;;19.09;56.84;100120.22;5120365;27;44925;-75
2022/10/24 00:39:47;;;;;;;;;2.33;0.00;;;;;18.98;56.62;100104.22;5114933;27;44937;-77
2022/10/24 00:42:12;;;;;;;;;0.33;0.33;;;;;19.01;56.85;100124.94;5116129;27;47120;-76
2022/10/24 00:44:39;;;;;;;;;3.33;0.33;;;;;18.94;56.96;100130.44;5103883;27;45652;-76
2022/10/24 00:47:25;;;;;;;;;0.00;0.00;;;;;18.74;56.97;100091.97;5109440;27;45199;-75
2022/10/24 00:49:59;;;;;;;;;1.00;1.00;;;;;18.85;57.28;100119.78;5116509;27;45596;-76
2022/10/24 00:52:33;;;;;;;;;2.00;1.00;;;;;18.81;57.69;100119.81;5111394;27;45268;-75
2022/10/24 00:55:00;;;;;;;;;1.00;1.00;;;;;18.63;57.32;100091.25;5120647;27;45104;-75
2022/10/24 00:57:36;;;;;;;;;0.00;0.00;;;;;18.59;57.62;100104.88;5111547;27;44931;-75
2022/10/24 01:00:12;;;;;;;;;2.00;1.00;;;;;18.63;57.71;100130.06;5113933;27;45000;-76
2022/10/24 01:02:38;;;;;;;;;2.67;0.67;;;;;18.67;58.04;100130.88;5111105;27;45262;-75
2022/10/24 01:05:05;;;;;;;;;1.33;0.00;;;;;18.65;58.08;100139.03;5113713;27;45523;-75
2022/10/24 01:07:57;;;;;;;;;1.00;1.00;;;;;18.65;58.31;100155.25;5119560;27;45229;-76
2022/10/24 01:10:55;;;;;;;;;0.67;0.67;;;;;18.64;58.34;100149.88;5113839;27;45052;-75
2022/10/24 01:13:44;;;;;;;;;2.33;1.00;;;;;18.62;58.42;100154.44;5093008;27;44926;-76
2022/10/24 01:16:16;;;;;;;;;0.33;0.33;;;;;18.51;58.40;100139.28;5108246;27;45327;-76
2022/10/24 01:18:54;;;;;;;;;0.00;0.00;;;;;18.58;58.51;100157.19;5095154;27;45379;-75
2022/10/24 01:21:27;;;;;;;;;0.67;0.00;;;;;18.63;58.49;100175.13;5098377;27;45249;-75
2022/10/24 01:24:13;;;;;;;;;1.00;1.00;;;;;18.50;58.52;100166.34;5108144;27;45224;-78
2022/10/24 01:26:48;;;;;;;;;1.00;0.33;;;;;18.60;58.71;100192.31;5115549;27;45079;-76
2022/10/24 01:29:32;;;;;;;;;1.00;1.00;;;;;18.59;58.92;100194.16;5111182;27;45250;-75
2022/10/24 01:32:11;;;;;;;;;0.00;0.00;;;;;18.57;58.70;100189.66;5108019;27;44946;-75
2022/10/24 01:34:45;;;;;;;;;0.00;0.00;;;;;18.55;58.59;100181.56;5113603;27;45267;-75
2022/10/24 01:37:43;;;;;;;;;1.00;1.00;;;;;18.59;58.91;100183.31;5089910;27;46168;-75
2022/10/24 01:40:16;;;;;;;;;1.00;1.00;;;;;18.47;59.13;100169.97;5110490;27;45191;-75
2022/10/24 01:42:45;;;;;;;;;0.00;0.00;;;;;18.59;58.97;100183.31;5116749;27;44977;-75
2022/10/24 01:45:17;;;;;;;;;3.33;1.00;;;;;18.38;58.99;100152.09;5112470;27;45383;-75
2022/10/24 01:47:50;;;;;;;;;0.00;0.00;;;;;18.30;59.25;100139.59;5118213;27;46265;-75
2022/10/24 01:50:19;;;;;;;;;1.00;0.00;;;;;18.51;59.30;100187.03;5109399;27;45191;-75
2022/10/24 01:52:46;;;;;;;;;0.00;0.00;;;;;18.48;59.73;100178.97;5110996;27;45266;-75
2022/10/24 01:55:11;;;;;;;;;1.67;0.00;;;;;18.41;59.63;100164.66;5113664;27;45347;-76
2022/10/24 01:57:38;;;;;;;;;1.00;0.67;;;;;18.43;59.72;100176.38;5120440;27;45069;-75
2022/10/24 02:00:06;;;;;;;;;1.00;0.33;;;;;18.46;59.68;100183.53;5115277;27;45443;-75
2022/10/24 02:02:48;;;;;;;;;0.33;0.33;;;;;18.43;59.77;100179.06;5119975;27;45175;-75
2022/10/24 02:05:20;;;;;;;;;2.67;1.00;;;;;18.35;59.79;100172.88;5109405;27;45087;-75
2022/10/24 02:07:49;;;;;;;;;2.00;1.00;;;;;18.29;59.69;100163.03;5091063;27;46534;-75
2022/10/24 02:10:21;;;;;;;;;2.67;1.00;;;;;18.38;59.81;100183.66;5113129;27;46026;-76
2022/10/24 02:12:53;;;;;;;;;2.67;1.00;;;;;18.28;59.98;100160.34;5109986;27;44984;-75
2022/10/24 02:15:25;;;;;;;;;1.00;0.00;;;;;18.37;59.94;100176.44;5106005;27;45194;-76
2022/10/24 02:17:52;;;;;;;;;1.33;0.33;;;;;18.35;60.06;100172.88;5119165;27;45205;-76
2022/10/24 02:20:26;;;;;;;;;5.00;0.00;;;;;18.34;59.80;100163.84;5111867;27;45113;-76
2022/10/24 02:23:00;;;;;;;;;0.33;0.00;;;;;18.31;60.10;100150.38;5120929;27;45133;-75
2022/10/24 02:25:33;;;;;;;;;2.00;0.00;;;;;18.24;60.14;100141.44;5117879;27;45385;-76
2022/10/24 02:28:32;;;;;;;;;0.00;0.00;;;;;18.33;60.32;100142.22;5109343;27;45569;-76
2022/10/24 02:31:06;;;;;;;;;0.00;0.00;;;;;18.13;60.25;100120.91;5093003;27;45001;-75
2022/10/24 02:33:34;;;;;;;;;1.67;0.00;;;;;18.31;60.16;100154.88;5109245;27;45118;-75
2022/10/24 02:36:02;;;;;;;;;0.00;0.00;;;;;18.27;60.50;100148.66;5120035;27;45079;-75
2022/10/24 02:38:32;;;;;;;;;2.00;2.00;;;;;18.23;60.60;100152.28;5110045;27;45660;-75
2022/10/24 02:41:03;;;;;;;;;7.00;3.00;;;;;18.20;60.61;100131.63;5104782;27;45411;-76
2022/10/24 02:43:30;;;;;;;;;3.00;1.00;;;;;18.21;60.82;100138.81;5111902;27;45405;-75
2022/10/24 02:45:57;;;;;;;;;0.33;0.33;;;;;17.94;60.96;100099.56;5111816;27;45206;-76
2022/10/24 02:48:28;;;;;;;;;1.67;0.33;;;;;18.15;61.08;100138.91;5119214;27;45163;-75
2022/10/24 02:50:54;;;;;;;;;5.67;2.00;;;;;18.09;61.21;100117.34;5111955;27;45101;-75
2022/10/24 02:53:22;;;;;;;;;2.00;1.00;;;;;18.15;61.09;100128.09;5113948;27;45718;-77
2022/10/24 02:55:48;;;;;;;;;1.33;0.00;;;;;18.13;61.13;100127.22;5106582;27;45136;-76
2022/10/24 02:58:13;;;;;;;;;1.00;1.00;;;;;18.07;61.31;100121.91;5109162;27;45838;-75
2022/10/24 03:00:38;;;;;;;;;3.00;0.00;;;;;18.11;61.53;100120.94;5104753;27;53021;-75
2022/10/24 03:03:04;;;;;;;;;6.33;1.00;;;;;18.13;61.17;100131.72;5110257;27;45185;-75
2022/10/24 03:05:29;;;;;;;;;1.00;1.00;;;;;17.97;61.00;100109.44;5109098;27;45057;-75
2022/10/24 03:07:54;;;;;;;;;0.00;0.00;;;;;18.07;61.14;100132.72;5105081;27;60349;-75
2022/10/24 03:10:20;;;;;;;;;2.33;1.33;;;;;17.89;61.17;100119.47;5124942;27;45126;-76
2022/10/24 03:12:45;;;;;;;;;2.33;1.00;;;;;18.04;61.17;100147.16;5124685;27;45232;-75
2022/10/24 03:15:11;;;;;;;;;1.00;1.00;;;;;18.06;61.35;100163.34;5110682;27;47133;-76
2022/10/24 03:17:36;;;;;;;;;2.50;0.00;;;;;18.05;61.11;100169.69;5114158;27;45720;-76
2022/10/24 03:20:01;;;;;;;;;2.33;0.00;;;;;17.92;61.90;100154.53;5115722;27;57595;-77
2022/10/24 03:22:27;;;;;;;;;0.33;0.33;;;;;17.88;61.80;100140.16;5106150;27;45009;-76
2022/10/24 03:24:52;;;;;;;;;2.33;1.33;;;;;17.95;61.75;100151.78;5114939;27;52755;-76
2022/10/24 03:27:17;;;;;;;;;1.33;1.00;;;;;17.97;61.58;100155.38;5114272;27;52636;-76
2022/10/24 03:29:43;;;;;;;;;0.00;0.00;;;;;17.96;61.68;100159.00;5114689;27;45099;-76
2022/10/24 03:32:08;;;;;;;;;1.00;0.00;;;;;17.98;61.70;100167.97;5113334;27;50491;-76
2022/10/24 03:34:33;;;;;;;;;2.33;0.67;;;;;17.71;61.67;100110.66;5115170;27;45165;-77
2022/10/24 03:36:59;;;;;;;;;3.00;2.00;;;;;17.78;61.86;100139.38;5117834;27;46014;-74
2022/10/24 03:39:24;;;;;;;;;3.33;1.33;;;;;17.92;62.15;100177.06;5115198;27;45073;-75
2022/10/24 03:41:49;;;;;;;;;1.33;1.00;;;;;17.91;62.09;100174.38;5099962;27;45250;-74
2022/10/24 03:44:15;;;;;;;;;5.33;1.00;;;;;17.85;61.81;100162.72;5108015;27;45154;-74
2022/10/24 03:46:40;;;;;;;;;4.00;1.00;;;;;17.39;62.12;100109.25;5114675;27;45893;-76
2022/10/24 03:49:05;;;;;;;;;1.00;0.00;;;;;17.72;62.53;100165.56;5106590;27;45378;-76
2022/10/24 03:51:31;;;;;;;;;2.00;0.33;;;;;17.79;62.40;100188.91;5124737;27;45005;-74
2022/10/24 03:53:56;;;;;;;;;2.00;1.00;;;;;17.78;62.53;100179.88;5123185;27;45223;-75
2022/10/24 03:56:22;;;;;;;;;2.67;1.00;;;;;17.74;62.05;100185.38;5115499;27;45389;-73
2022/10/24 03:58:47;;;;;;;;;3.33;1.00;;;;;17.77;62.59;100183.53;5118130;27;44988;-74
2022/10/24 04:01:17;;;;;;;;;2.00;0.67;;;;;17.69;62.21;100180.03;5120201;27;45029;-75
2022/10/24 04:03:43;;;;;;;;;8.00;3.00;;;;;17.77;62.39;100204.22;5119737;27;45326;-75
2022/10/24 04:06:09;;;;;;;;;1.67;1.33;;;;;17.64;62.49;100196.28;5103478;27;47378;-75
2022/10/24 04:08:34;;;;;;;;;1.00;0.00;;;;;17.72;62.95;100209.72;5118131;27;45094;-74
2022/10/24 04:11:00;;;;;;;;;2.67;2.00;;;;;17.79;63.01;100214.13;5115550;27;45218;-74
2022/10/24 04:13:25;;;;;;;;;3.33;1.00;;;;;17.74;63.10;100212.41;5116039;27;45128;-74
2022/10/24 04:15:50;;;;;;;;;2.33;1.00;;;;;17.75;62.99;100217.78;5112642;27;45027;-74
2022/10/24 04:18:16;;;;;;;;;2.67;1.00;;;;;17.80;62.88;100237.53;5111084;27;45313;-75
2022/10/24 04:20:41;;;;;;;;;6.00;1.00;;;;;17.68;62.83;100210.63;5122581;27;45269;-74
2022/10/24 04:23:06;;;;;;;;;3.00;1.00;;;;;17.81;63.14;100236.59;5115154;27;45001;-75
2022/10/24 04:25:32;;;;;;;;;1.33;1.33;;;;;17.77;63.10;100236.66;5118255;27;45106;-75
2022/10/24 04:27:57;;;;;;;;;1.33;1.00;;;;;17.81;63.14;100230.31;5120081;27;45137;-76
2022/10/24 04:30:22;;;;;;;;;2.33;1.00;;;;;17.58;62.97;100206.25;5110415;27;45341;-76
2022/10/24 04:32:48;;;;;;;;;2.00;1.00;;;;;17.79;63.38;100243.84;5114707;27;45071;-76
2022/10/24 04:35:13;;;;;;;;;0.00;0.00;;;;;17.79;63.14;100238.44;5109655;27;49174;-75
2022/10/24 04:37:39;;;;;;;;;7.00;1.00;;;;;17.80;63.08;100251.03;5112333;27;45175;-76
2022/10/24 04:40:05;;;;;;;;;4.33;2.00;;;;;17.64;63.08;100222.41;5095806;27;45472;-76
2022/10/24 04:42:30;;;;;;;;;3.33;1.67;;;;;17.82;63.12;100253.75;5113697;27;45503;-74
2022/10/24 04:44:55;;;;;;;;;1.33;0.00;;;;;17.82;63.02;100262.72;5118285;27;52174;-76
2022/10/24 04:47:21;;;;;;;;;6.00;1.00;;;;;17.61;63.03;100234.13;5112621;27;51989;-76
2022/10/24 04:49:46;;;;;;;;;3.33;0.00;;;;;17.57;62.91;100237.78;5102828;27;45170;-76
2022/10/24 04:52:11;;;;;;;;;1.00;1.00;;;;;17.71;63.17;100274.56;5118448;27;45044;-76
2022/10/24 04:54:37;;;;;;;;;2.00;1.00;;;;;17.45;63.19;100219.88;5109862;27;44989;-75
2022/10/24 04:57:02;;;;;;;;;2.33;1.00;;;;;17.57;63.62;100245.91;5112539;27;44938;-75
2022/10/24 04:59:27;;;;;;;;;1.00;1.00;;;;;17.66;63.54;100274.59;5113582;27;45981;-75
2022/10/24 05:01:56;;;;;;;;;8.67;1.33;;;;;17.52;63.47;100261.22;5114352;27;45246;-75
2022/10/24 05:04:21;;;;;;;;;1.00;1.00;;;;;17.60;63.53;100288.16;5112435;27;45762;-75
2022/10/24 05:06:46;;;;;;;;;5.00;1.33;;;;;17.59;63.69;100290.00;5117744;27;53959;-75
2022/10/24 05:09:13;;;;;;;;;2.67;2.33;;;;;17.53;63.93;100279.22;5116598;27;63499;-75
2022/10/24 05:11:38;;;;;;;;;0.00;0.00;;;;;17.52;64.02;100290.94;5116130;27;45102;-75
2022/10/24 05:14:04;;;;;;;;;0.33;0.33;;;;;17.39;63.66;100276.69;5111724;27;45280;-75
2022/10/24 05:16:29;;;;;;;;;5.33;1.33;;;;;17.50;63.95;100301.78;5118480;27;53787;-75
2022/10/24 05:18:54;;;;;;;;;1.67;1.33;;;;;17.50;63.74;100301.78;5114521;27;47888;-75
2022/10/24 05:21:20;;;;;;;;;2.00;1.00;;;;;17.47;64.07;100307.22;5115313;27;45571;-75
2022/10/24 05:23:45;;;;;;;;;2.00;1.00;;;;;17.34;64.07;100275.81;5111128;27;50477;-76
2022/10/24 05:26:10;;;;;;;;;5.67;2.00;;;;;17.50;64.24;100322.47;5108205;27;53889;-75
2022/10/24 05:28:36;;;;;;;;;1.33;0.67;;;;;17.37;64.42;100304.59;5108978;27;45651;-75
2022/10/24 05:31:01;;;;;;;;;3.00;1.33;;;;;17.43;64.37;100313.53;5111136;27;44950;-75
2022/10/24 05:33:26;;;;;;;;;2.33;1.67;;;;;17.53;64.57;100330.56;5116478;27;45896;-76
2022/10/24 05:35:52;;;;;;;;;3.33;1.33;;;;;17.37;64.36;100308.19;5118357;27;55943;-75
2022/10/24 05:38:17;;;;;;;;;3.00;1.33;;;;;17.48;64.34;100327.00;5111528;27;45118;-77
2022/10/24 05:40:46;;;;;;;;;4.67;3.00;;;;;17.48;64.93;100327.88;5106863;27;45135;-75
2022/10/24 05:43:12;;;;;;;;;4.00;2.67;;;;;17.25;64.16;100279.47;5091039;27;45919;-77
2022/10/24 05:45:37;;;;;;;;;4.00;3.00;;;;;17.38;64.59;100299.19;5109834;27;44893;-75
2022/10/24 05:48:02;;;;;;;;;8.33;6.00;;;;;17.62;64.55;100327.78;5109227;27;55373;-75
2022/10/24 05:50:28;;;;;;;;;1.33;1.00;;;;;17.59;64.65;100326.91;5111817;27;45149;-76
2022/10/24 05:52:54;;;;;;;;;7.00;2.00;;;;;17.63;64.39;100336.78;5111033;27;45262;-75
2022/10/24 05:55:19;;;;;;;;;3.33;2.33;;;;;17.65;64.45;100330.47;5112045;27;58469;-75
2022/10/24 05:57:45;;;;;;;;;5.67;2.67;;;;;17.50;64.29;100295.47;5099327;27;45638;-75
2022/10/24 06:00:13;;;;;;;;;8.67;3.00;;;;;17.52;64.37;100311.66;5119348;27;47417;-75
2022/10/24 06:02:39;;;;;;;;;4.33;3.33;;;;;17.60;64.55;100320.59;5117119;27;46682;-75
2022/10/24 06:05:06;;;;;;;;;8.33;1.00;;;;;17.65;64.40;100341.25;5128443;27;45150;-75
2022/10/24 06:07:31;;;;;;;;;2.00;2.00;;;;;17.49;64.59;100310.78;5124772;27;45821;-75
2022/10/24 06:09:57;;;;;;;;;3.67;3.00;;;;;17.60;64.53;100334.09;5125546;27;45201;-76
2022/10/24 06:12:22;;;;;;;;;1.00;1.00;;;;;17.48;64.52;100314.38;5129855;27;57296;-75
2022/10/24 06:14:48;;;;;;;;;4.67;1.00;;;;;17.17;64.90;100254.34;5097923;27;46038;-75
2022/10/24 06:17:13;;;;;;;;;3.00;3.00;;;;;17.55;64.73;100315.22;5119672;27;45223;-75
2022/10/24 06:19:39;;;;;;;;;2.67;2.00;;;;;17.65;64.19;100333.16;5108435;27;44917;-75
2022/10/24 06:22:06;;;;;;;;;10.33;3.33;;;;;17.66;64.71;100331.34;5102565;27;46028;-75
2022/10/24 06:24:34;;;;;;;;;6.00;4.00;;;;;17.53;64.58;100317.03;5113208;27;45136;-75
2022/10/24 06:26:59;;;;;;;;;9.33;2.33;;;;;17.61;64.51;100330.50;5125073;27;45116;-72
2022/10/24 06:29:24;;;;;;;;;7.67;5.33;;;;;17.39;64.94;100305.47;5115221;27;45222;-75
2022/10/24 06:31:50;;;;;;;;;5.00;3.33;;;;;17.58;65.26;100335.91;5111705;27;46272;-75
2022/10/24 06:34:15;;;;;;;;;3.33;3.00;;;;;17.60;64.58;100353.00;5112680;27;45076;-75
2022/10/24 06:36:40;;;;;;;;;4.00;3.00;;;;;17.56;64.40;100362.06;5113081;27;45283;-75
2022/10/24 06:39:06;;;;;;;;;9.67;6.67;;;;;17.43;64.33;100337.84;5105086;27;45192;-75
2022/10/24 06:41:31;;;;;;;;;3.00;3.00;;;;;17.50;64.43;100363.00;5112450;27;45546;-75
2022/10/24 06:43:56;;;;;;;;;2.33;1.67;;;;;17.27;64.50;100330.78;5102748;27;45381;-74
2022/10/24 06:46:23;;;;;;;;;2.33;2.00;;;;;17.28;64.77;100341.56;5105241;27;45352;-75
2022/10/24 06:48:52;;;;;;;;;6.67;2.33;;;;;17.29;64.28;100348.75;5123666;27;45151;-74
2022/10/24 06:51:17;;;;;;;;;3.00;3.00;;;;;17.40;64.39;100370.25;5094947;27;46196;-75
2022/10/24 06:53:43;;;;;;;;;2.67;2.00;;;;;17.33;64.53;100362.25;5115741;27;45181;-75
2022/10/24 06:56:08;;;;;;;;;3.67;2.00;;;;;16.94;63.98;100289.63;5124990;27;45029;-75
2022/10/24 06:58:35;;;;;;;;;4.33;1.00;;;;;17.39;64.19;100368.50;5123406;27;45394;-74
2022/10/24 07:01:13;;;;;;;;;4.00;2.67;;;;;17.30;64.58;100361.34;5131906;27;45424;-74
2022/10/24 07:03:38;;;;;;;;;5.00;2.00;;;;;17.28;63.90;100348.78;5131716;27;45280;-75
2022/10/24 07:06:09;;;;;;;;;1.33;1.33;;;;;17.38;63.85;100371.19;5101702;27;45024;-74
2022/10/24 07:08:34;;;;;;;;;4.67;2.33;;;;;17.52;64.11;100414.28;5128706;27;45287;-74
2022/10/24 07:11:00;;;;;;;;;5.00;2.50;;;;;17.49;63.89;100408.03;5127453;27;45705;-75
2022/10/24 07:13:25;;;;;;;;;3.33;1.33;;;;;17.34;63.87;100391.03;5127690;27;45085;-75
2022/10/24 07:15:53;;;;;;;;;5.33;2.33;;;;;17.44;64.20;100408.94;5128646;27;46983;-74
2022/10/24 07:18:19;;;;;;;;;3.67;2.33;;;;;17.48;63.84;100432.34;5130106;27;45050;-75
2022/10/24 07:20:44;;;;;;;;;7.00;2.00;;;;;17.48;63.97;100430.53;5127466;27;45281;-75
2022/10/24 07:23:10;;;;;;;;;5.33;5.33;;;;;17.51;64.09;100435.03;5132695;27;45126;-75
2022/10/24 07:25:37;;;;;;;;;1.33;1.33;;;;;17.52;64.25;100431.38;5130712;27;45064;-75
2022/10/24 07:28:03;;;;;;;;;4.33;1.67;;;;;17.47;63.72;100423.34;5131706;27;45368;-75
2022/10/24 07:30:28;;;;;;;;;2.67;2.67;;;;;17.60;63.75;100437.63;5131494;27;46450;-75
2022/10/24 07:32:54;;;;;;;;;1.67;1.33;;;;;17.60;63.49;100434.03;5123979;27;45206;-75
2022/10/24 07:35:20;;;;;;;;;7.00;4.00;;;;;17.59;63.80;100435.84;5120517;27;45891;-75
2022/10/24 07:37:45;;;;;;;;;3.00;3.00;;;;;17.52;63.62;100411.59;5121894;27;45119;-75
2022/10/24 07:40:11;;;;;;;;;2.00;2.00;;;;;17.55;63.52;100416.97;5128402;27;46011;-75
2022/10/24 07:42:36;;;;;;;;;2.67;1.00;;;;;17.26;63.43;100356.88;5124074;27;44957;-75
2022/10/24 07:45:02;;;;;;;;;2.00;2.00;;;;;17.71;63.23;100437.56;5108621;27;46803;-75
2022/10/24 07:47:27;;;;;;;;;5.67;2.00;;;;;17.43;63.18;100399.06;5127431;27;45392;-75
2022/10/24 07:49:53;;;;;;;;;6.67;3.33;;;;;17.53;63.41;100414.28;5103934;27;48228;-75
2022/10/24 07:52:18;;;;;;;;;2.00;1.00;;;;;17.49;63.32;100413.41;5121277;27;64444;-75
2022/10/24 07:54:43;;;;;;;;;7.67;3.33;;;;;17.61;63.62;100431.34;5122843;27;45050;-75
2022/10/24 07:57:08;;;;;;;;;6.00;2.00;;;;;17.73;63.67;100462.75;5128552;27;45269;-75
2022/10/24 07:59:34;;;;;;;;;3.00;1.67;;;;;17.73;63.73;100459.16;5130028;27;45348;-75
2022/10/24 08:01:59;;;;;;;;;5.00;3.00;;;;;17.48;63.78;100421.53;5131382;27;45082;-75
2022/10/24 08:04:25;;;;;;;;;3.00;2.33;;;;;17.74;63.68;100472.66;5133963;27;45072;-76
2022/10/24 08:06:50;;;;;;;;;8.00;3.00;;;;;17.74;63.67;100459.16;5134250;27;44992;-75
2022/10/24 08:09:16;;;;;;;;;8.67;7.33;;;;;17.76;63.81;100475.38;5108369;27;64598;-75
2022/10/24 08:11:42;;;;;;;;;2.00;1.00;;;;;17.67;63.67;100458.31;5124569;27;44950;-75
2022/10/24 08:14:07;;;;;;;;;5.33;3.67;;;;;17.81;64.00;100474.41;5125738;27;45078;-76
2022/10/24 08:16:33;;;;;;;;;2.00;2.00;;;;;17.75;63.75;100455.56;5128497;27;45093;-76
2022/10/24 08:18:58;;;;;;;;;6.67;2.00;;;;;17.75;63.55;100466.38;5126525;27;45690;-76
2022/10/24 08:21:24;;;;;;;;;2.00;2.00;;;;;17.89;63.65;100482.50;5130178;27;44945;-75
2022/10/24 08:23:51;;;;;;;;;3.00;2.00;;;;;17.87;63.65;100481.63;5128549;27;45127;-76
2022/10/24 08:26:20;;;;;;;;;5.00;2.67;;;;;17.84;63.67;100487.00;5130419;27;45173;-75
2022/10/24 08:28:46;;;;;;;;;2.67;2.67;;;;;17.87;63.51;100503.25;5128786;27;45584;-75
2022/10/24 08:31:18;;;;;;;;;6.33;2.33;;;;;17.86;63.71;100496.00;5131649;27;44912;-75
2022/10/24 08:33:43;;;;;;;;;5.67;3.00;;;;;17.87;63.35;100497.84;5129805;27;45087;-75
2022/10/24 08:36:21;;;;;;;;;3.67;3.00;;;;;17.73;63.61;100462.75;5120602;27;45192;-75
2022/10/24 08:38:46;;;;;;;;;5.00;2.00;;;;;17.88;63.44;100480.69;5125344;27;45206;-75
2022/10/24 08:41:39;;;;;;;;;1.00;1.00;;;;;17.82;62.88;100470.81;5126374;27;45182;-75
2022/10/24 08:44:20;;;;;;;;;4.33;3.00;;;;;17.88;63.04;100483.41;5116303;27;45156;-76
2022/10/24 08:47:08;;;;;;;;;5.00;2.00;;;;;18.03;62.71;100504.91;5115073;27;45048;-75
2022/10/24 08:49:55;;;;;;;;;6.00;3.33;;;;;18.06;62.45;100501.28;5106941;27;46344;-75
2022/10/24 08:52:42;;;;;;;;;3.33;0.67;;;;;17.97;62.90;100482.44;5121438;27;45211;-73
2022/10/24 08:55:24;;;;;;;;;4.00;2.00;;;;;18.11;62.03;100504.81;5115536;27;45440;-80
2022/10/24 08:57:56;;;;;;;;;1.33;1.00;;;;;18.04;62.23;100495.00;5119915;27;45321;-75
2022/10/24 09:00:25;;;;;;;;;2.00;2.00;;;;;18.05;62.24;100499.50;5115174;27;45689;-77
2022/10/24 09:03:19;;;;;;;;;4.00;1.00;;;;;18.07;62.24;100507.59;5120052;27;45350;-75
2022/10/24 09:05:49;;;;;;;;;3.67;2.33;;;;;18.08;62.40;100507.56;5111099;27;44978;-77
2022/10/24 09:08:46;;;;;;;;;2.00;2.00;;;;;18.13;62.67;100512.94;5127468;27;45391;-77
2022/10/24 09:11:22;;;;;;;;;5.67;1.00;;;;;18.11;62.82;100501.25;5110894;27;45684;-76
2022/10/24 09:13:47;;;;;;;;;5.00;2.00;;;;;18.26;62.52;100525.44;5093307;27;45398;-75
2022/10/24 09:16:19;;;;;;;;;6.67;2.33;;;;;18.27;62.34;100521.81;5124848;27;45585;-75
2022/10/24 09:18:47;;;;;;;;;4.00;4.00;;;;;18.08;62.22;100475.13;5118282;27;45267;-77
2022/10/24 09:21:14;;;;;;;;;5.00;4.00;;;;;18.31;62.01;100504.66;5123772;27;45798;-75
2022/10/24 09:23:41;;;;;;;;;4.33;2.00;;;;;17.96;61.58;100429.28;5096624;27;45064;-75
2022/10/24 09:26:14;;;;;;;;;3.33;3.33;;;;;18.59;61.28;100521.53;5114489;27;45308;-78
2022/10/24 09:28:41;;;;;;;;;8.67;4.67;;;;;18.45;61.17;100477.47;5107602;27;45287;-79
2022/10/24 09:31:20;;;;;;;;;1.67;1.33;;;;;18.75;60.57;100518.66;5108022;27;46260;-75
2022/10/24 09:33:47;;;;;;;;;6.67;2.33;;;;;18.85;60.14;100531.19;5128801;27;45394;-79
2022/10/24 09:36:15;;;;;;;;;2.00;2.00;;;;;18.71;60.17;100506.03;5126188;27;44990;-77
2022/10/24 09:38:42;;;;;;;;;2.67;2.67;;;;;18.71;60.12;100495.22;5126827;27;44982;-80
2022/10/24 09:41:25;;;;;;;;;4.00;2.33;;;;;18.91;59.93;100531.13;5106807;27;45861;-78
2022/10/24 09:43:56;;;;;;;;;0.67;0.67;;;;;18.95;60.05;100524.75;5119685;27;45091;-78
2022/10/24 09:46:40;;;;;;;;;3.00;3.00;;;;;18.94;60.12;100533.81;5124813;27;45585;-78
2022/10/24 09:49:16;;;;;;;;;2.33;1.00;;;;;18.97;59.58;100538.28;5125316;27;45309;-79
2022/10/24 09:52:02;;;;;;;;;2.00;2.00;;;;;18.94;60.02;100546.44;5119539;27;46124;-78
2022/10/24 09:54:30;;;;;;;;;7.67;3.67;;;;;18.81;59.88;100532.13;5108431;27;45254;-80
2022/10/24 09:57:14;;;;;;;;;3.33;2.33;;;;;18.83;60.58;100543.84;5118068;27;45658;-82
2022/10/24 10:00:00;;;;;;;;;2.33;2.00;;;;;18.66;60.74;100530.47;5123554;27;45012;-80
2022/10/24 10:02:27;;;;;;;;;2.00;2.00;;;;;18.83;61.34;100551.97;5112232;27;46320;-75
2022/10/24 10:05:02;;;;;;;;;1.00;1.00;;;;;18.78;61.69;100568.22;5128385;27;45086;-78
2022/10/24 10:07:39;;;;;;;;;7.67;3.67;;;;;18.68;62.21;100562.94;5110786;27;45151;-78
2022/10/24 10:10:16;;;;;;;;;10.67;9.67;;;;;18.71;62.16;100577.34;5127221;27;45294;-80
2022/10/24 10:12:45;;;;;;;;;10.00;5.33;;;;;18.67;61.96;100566.53;5115364;27;45640;-79
2022/10/24 10:15:35;;;;;;;;;8.33;4.33;;;;;18.72;61.85;100568.28;5121610;27;45178;-78
2022/10/24 10:18:29;;;;;;;;;7.33;4.33;;;;;18.81;61.49;100569.09;5113523;27;45093;-79
2022/10/24 10:21:00;;;;;;;;;3.00;2.00;;;;;18.53;61.22;100509.88;5120231;27;45022;-79
2022/10/24 10:23:31;;;;;;;;;6.00;4.33;;;;;18.88;60.97;100562.75;5125589;27;45187;-75
2022/10/24 10:26:28;;;;;;;;;5.00;4.00;;;;;18.92;61.13;100562.72;5127187;27;45223;-76
2022/10/24 10:29:03;;;;;;;;;4.67;3.00;;;;;18.97;60.83;100570.75;5126288;27;45183;-75
2022/10/24 10:31:37;;;;;;;;;5.00;3.67;;;;;18.91;60.75;100541.06;5127660;27;45175;-75
2022/10/24 10:34:13;;;;;;;;;3.00;2.67;;;;;18.75;60.46;100519.53;5128271;27;45952;-75
2022/10/24 10:36:57;;;;;;;;;6.67;4.00;;;;;19.12;60.23;100566.97;5122832;27;44931;-76
2022/10/24 10:39:47;;;;;;;;;4.67;3.00;;;;;19.12;59.94;100556.16;5117953;27;44940;-74
2022/10/24 10:42:33;;;;;;;;;5.67;4.67;;;;;19.21;59.72;100553.34;5122625;27;44944;-74
2022/10/24 10:45:18;;;;;;;;;5.33;2.67;;;;;19.40;59.24;100564.84;5116708;27;45765;-75
2022/10/24 10:47:49;;;;;;;;;3.33;3.33;;;;;19.49;58.97;100569.25;5114540;27;45259;-76
2022/10/24 10:50:27;;;;;;;;;4.67;4.00;;;;;19.21;58.66;100501.88;5120457;27;45135;-74
2022/10/24 10:53:03;;;;;;;;;5.00;2.00;;;;;19.52;58.35;100552.94;5115732;27;45372;-75
2022/10/24 10:55:46;;;;;;;;;4.33;2.00;;;;;19.72;58.18;100579.78;5095903;27;47196;-74
2022/10/24 10:58:32;;;;;;;;;8.67;4.67;;;;;19.81;57.84;100568.81;5117752;27;44970;-75
2022/10/24 11:01:06;;;;;;;;;12.67;4.67;;;;;19.94;57.56;100574.06;5114993;27;45153;-75
2022/10/24 11:04:00;;;;;;;;;4.00;3.00;;;;;19.87;57.33;100552.47;5116712;27;45038;-74
2022/10/24 11:06:37;;;;;;;;;5.33;2.67;;;;;20.00;57.15;100572.16;5106006;27;47016;-74
2022/10/24 11:09:22;;;;;;;;;2.00;2.00;;;;;20.02;56.86;100572.13;5120772;27;45108;-74
2022/10/24 11:11:58;;;;;;;;;5.67;5.33;;;;;20.01;56.87;100579.38;5128316;27;45166;-76
2022/10/24 11:14:32;;;;;;;;;5.67;3.33;;;;;19.88;56.44;100550.63;5122237;27;44951;-75
2022/10/24 11:17:05;;;;;;;;;10.00;8.67;;;;;19.95;56.58;100584.91;5101145;27;45978;-75
2022/10/24 11:19:55;;;;;;;;;4.00;4.00;;;;;19.94;57.04;100576.78;5124202;27;45051;-75
2022/10/24 11:22:31;;;;;;;;;3.00;3.00;;;;;19.92;56.86;100571.38;5108085;27;45400;-75
2022/10/24 11:25:17;;;;;;;;;3.00;2.00;;;;;19.91;57.08;100568.69;5126880;27;45074;-75
2022/10/24 11:27:50;;;;;;;;;4.33;2.00;;;;;19.88;57.03;100572.31;5096267;27;45882;-75
2022/10/24 11:30:19;;;;;;;;;4.00;3.00;;;;;19.90;56.85;100567.81;5118418;27;45054;-76
2022/10/24 11:32:56;;;;;;;;;6.00;3.00;;;;;19.82;56.81;100531.78;5111871;27;45040;-75
2022/10/24 11:35:31;;;;;;;;;5.00;3.00;;;;;20.02;56.72;100567.59;5131247;27;44984;-75
2022/10/24 11:38:21;;;;;;;;;6.00;5.00;;;;;20.05;56.72;100564.84;5124791;27;45900;-75